sensor_id;sensor_type;location;lat;lon;timestamp;pressure;altitude;pressure_sealevel;temperature;humidity
68489;BME280;55481;48.764;8.936;2023-06-14T00:06:15;96590;;;13.2;40
68489;BME280;55481;48.764;8.936;2023-06-14T00:08:45;96590;;;13.1;40.5
68489;BME280;55481;48.764;8.936;2023-06-14T00:11:16;96590;;;13;40.5
68489;BME280;55481;48.764;8.936;2023-06-14T00:13:47;96580;;;12.9;40.5
68489;BME280;55481;48.764;8.936;2023-06-14T00:16:24;96590;;;13;40.5
68489;BME280;55481;48.764;8.936;2023-06-14T00:18:55;96590;;;12.5;41
68489;BME280;55481;48.764;8.936;2023-06-14T00:21:27;96590;;;12;42
68489;BME280;55481;48.764;8.936;2023-06-14T00:23:57;96580;;;12.3;41.5
68489;BME280;55481;48.764;8.936;2023-06-14T00:26:21;96580;;;12.2;41.5
68489;BME280;55481;48.764;8.936;2023-06-14T00:33:54;96580;;;12.3;41.5
68489;BME280;55481;48.764;8.936;2023-06-14T00:36:24;96570;;;12.5;41
68489;BME280;55481;48.764;8.936;2023-06-14T00:38:55;96580;;;12.7;40.5
68489;BME280;55481;48.764;8.936;2023-06-14T00:41:30;96580;;;12.6;41
68489;BME280;55481;48.764;8.936;2023-06-14T00:43:59;96580;;;12.4;41.5
68489;BME280;55481;48.764;8.936;2023-06-14T00:46:37;96580;;;12.1;41.5
68489;BME280;55481;48.764;8.936;2023-06-14T00:49:17;96590;;;12.2;41.5
68489;BME280;55481;48.764;8.936;2023-06-14T00:54:07;96590;;;12.5;41.5
68489;BME280;55481;48.764;8.936;2023-06-14T00:56:44;96590;;;12.5;41
68489;BME280;55481;48.764;8.936;2023-06-14T00:59:14;96590;;;12.3;41.5
68489;BME280;55481;48.764;8.936;2023-06-14T01:01:38;96590;;;12.4;41.5
68489;BME280;55481;48.764;8.936;2023-06-14T01:04:09;96590;;;12.3;41.5
68489;BME280;55481;48.764;8.936;2023-06-14T01:06:50;96590;;;12.3;41.5
68489;BME280;55481;48.764;8.936;2023-06-14T01:09:18;96590;;;12.3;42
68489;BME280;55481;48.764;8.936;2023-06-14T01:14:25;96590;;;12;42.5
68489;BME280;55481;48.764;8.936;2023-06-14T01:16:49;96590;;;12.1;42.5
68489;BME280;55481;48.764;8.936;2023-06-14T01:21:44;96590;;;11.7;43
68489;BME280;55481;48.764;8.936;2023-06-14T01:24:14;96590;;;11.6;43
68489;BME280;55481;48.764;8.936;2023-06-14T01:36:43;96590;;;11.3;43.5
68489;BME280;55481;48.764;8.936;2023-06-14T01:39:13;96590;;;11.2;43.5
68489;BME280;55481;48.764;8.936;2023-06-14T01:41:43;96590;;;11.2;43.5
68489;BME280;55481;48.764;8.936;2023-06-14T01:44:14;96600;;;11.1;43.5
68489;BME280;55481;48.764;8.936;2023-06-14T01:46:45;96590;;;11.2;43.5
68489;BME280;55481;48.764;8.936;2023-06-14T01:49:16;96590;;;11.2;43.5
68489;BME280;55481;48.764;8.936;2023-06-14T01:51:54;96600;;;11.5;43
68489;BME280;55481;48.764;8.936;2023-06-14T01:54:24;96600;;;11.4;43
68489;BME280;55481;48.764;8.936;2023-06-14T01:56:54;96600;;;11.3;43.5
68489;BME280;55481;48.764;8.936;2023-06-14T01:59:26;96590;;;11.3;43.5
68489;BME280;55481;48.764;8.936;2023-06-14T02:04:20;96590;;;11.2;43.5
68489;BME280;55481;48.764;8.936;2023-06-14T02:06:51;96600;;;11.4;43.5
68489;BME280;55481;48.764;8.936;2023-06-14T02:09:22;96590;;;11.4;43
68489;BME280;55481;48.764;8.936;2023-06-14T02:11:53;96590;;;11.3;43.5
68489;BME280;55481;48.764;8.936;2023-06-14T02:14:24;96600;;;11.3;43.5
68489;BME280;55481;48.764;8.936;2023-06-14T02:16:54;96590;;;11.4;43.5
68489;BME280;55481;48.764;8.936;2023-06-14T02:19:25;96590;;;11.3;43.5
68489;BME280;55481;48.764;8.936;2023-06-14T02:21:56;96590;;;11.2;44
68489;BME280;55481;48.764;8.936;2023-06-14T02:34:36;96590;;;11.2;44
68489;BME280;55481;48.764;8.936;2023-06-14T02:37:07;96600;;;11.1;44
68489;BME280;55481;48.764;8.936;2023-06-14T02:39:38;96600;;;11;44.5
68489;BME280;55481;48.764;8.936;2023-06-14T02:42:09;96600;;;11.2;44
68489;BME280;55481;48.764;8.936;2023-06-14T02:44:40;96590;;;11.2;44
68489;BME280;55481;48.764;8.936;2023-06-14T02:47:10;96590;;;11;44.5
68489;BME280;55481;48.764;8.936;2023-06-14T02:49:42;96600;;;11.1;44.5
68489;BME280;55481;48.764;8.936;2023-06-14T02:52:12;96590;;;11.1;44.5
68489;BME280;55481;48.764;8.936;2023-06-14T03:02:33;96590;;;10.9;45
68489;BME280;55481;48.764;8.936;2023-06-14T03:04:51;96590;;;10.7;45
68489;BME280;55481;48.764;8.936;2023-06-14T03:09:51;96600;;;10.6;45.5
68489;BME280;55481;48.764;8.936;2023-06-14T03:12:21;96600;;;10.5;45.5
68489;BME280;55481;48.764;8.936;2023-06-14T03:14:51;96600;;;10.5;45.5
68489;BME280;55481;48.764;8.936;2023-06-14T03:17:22;96600;;;10.5;45.5
68489;BME280;55481;48.764;8.936;2023-06-14T03:19:52;96600;;;10.4;45.5
68489;BME280;55481;48.764;8.936;2023-06-14T03:24:46;96610;;;10.4;45.5
68489;BME280;55481;48.764;8.936;2023-06-14T03:27:17;96610;;;10.5;45.5
68489;BME280;55481;48.764;8.936;2023-06-14T03:29:48;96610;;;10.6;45.5
68489;BME280;55481;48.764;8.936;2023-06-14T03:32:23;96610;;;10.6;45
68489;BME280;55481;48.764;8.936;2023-06-14T03:34:50;96610;;;10.6;45.5
68489;BME280;55481;48.764;8.936;2023-06-14T03:37:21;96620;;;10.6;45.5
68489;BME280;55481;48.764;8.936;2023-06-14T03:39:52;96620;;;10.6;45.5
68489;BME280;55481;48.764;8.936;2023-06-14T03:42:23;96620;;;10.6;45.5
68489;BME280;55481;48.764;8.936;2023-06-14T03:44:54;96620;;;10.7;45.5
68489;BME280;55481;48.764;8.936;2023-06-14T03:47:31;96630;;;10.6;45.5
68489;BME280;55481;48.764;8.936;2023-06-14T03:50:03;96630;;;10.6;45.5
68489;BME280;55481;48.764;8.936;2023-06-14T03:54:58;96640;;;10.6;45.5
68489;BME280;55481;48.764;8.936;2023-06-14T03:57:29;96640;;;10.6;45.5
68489;BME280;55481;48.764;8.936;2023-06-14T04:00:00;96640;;;10.6;46
68489;BME280;55481;48.764;8.936;2023-06-14T04:02:31;96640;;;10.7;45.5
68489;BME280;55481;48.764;8.936;2023-06-14T04:05:02;96640;;;10.8;45.5
68489;BME280;55481;48.764;8.936;2023-06-14T04:07:33;96650;;;10.5;46
68489;BME280;55481;48.764;8.936;2023-06-14T04:10:03;96650;;;10.4;46.5
68489;BME280;55481;48.764;8.936;2023-06-14T04:12:34;96650;;;10.4;46.5
68489;BME280;55481;48.764;8.936;2023-06-14T04:15:15;96660;;;10.4;46
68489;BME280;55481;48.764;8.936;2023-06-14T04:17:36;96660;;;10.4;46
68489;BME280;55481;48.764;8.936;2023-06-14T04:20:07;96660;;;10.6;46
68489;BME280;55481;48.764;8.936;2023-06-14T04:22:38;96660;;;10.7;46
68489;BME280;55481;48.764;8.936;2023-06-14T04:25:15;96660;;;10.8;45.5
68489;BME280;55481;48.764;8.936;2023-06-14T04:30:11;96670;;;11;45.5
68489;BME280;55481;48.764;8.936;2023-06-14T04:35:19;96660;;;11.5;44.5
68489;BME280;55481;48.764;8.936;2023-06-14T04:40:20;96650;;;11.6;45
68489;BME280;55481;48.764;8.936;2023-06-14T04:42:50;96660;;;11.8;44.5
68489;BME280;55481;48.764;8.936;2023-06-14T04:45:20;96650;;;11.8;44.5
68489;BME280;55481;48.764;8.936;2023-06-14T04:47:58;96660;;;11.9;44.5
68489;BME280;55481;48.764;8.936;2023-06-14T04:50:35;96660;;;11.9;45
68489;BME280;55481;48.764;8.936;2023-06-14T04:55:14;96660;;;12.3;44.5
68489;BME280;55481;48.764;8.936;2023-06-14T04:57:45;96660;;;12.5;44
68489;BME280;55481;48.764;8.936;2023-06-14T05:00:16;96660;;;12.6;44
68489;BME280;55481;48.764;8.936;2023-06-14T05:10:13;96660;;;13;44
68489;BME280;55481;48.764;8.936;2023-06-14T05:12:44;96670;;;13.1;43.5
68489;BME280;55481;48.764;8.936;2023-06-14T05:15:15;96670;;;13.1;44
68489;BME280;55481;48.764;8.936;2023-06-14T05:17:45;96670;;;13.3;43.5
68489;BME280;55481;48.764;8.936;2023-06-14T05:20:24;96660;;;13.5;43.5
68489;BME280;55481;48.764;8.936;2023-06-14T05:23:02;96670;;;13.5;43.5
68489;BME280;55481;48.764;8.936;2023-06-14T05:25:25;96670;;;13.7;43.5
68489;BME280;55481;48.764;8.936;2023-06-14T05:27:56;96670;;;13.8;43.5
68489;BME280;55481;48.764;8.936;2023-06-14T05:30:27;96670;;;13.9;43.5
68489;BME280;55481;48.764;8.936;2023-06-14T05:33:00;96680;;;14;43
68489;BME280;55481;48.764;8.936;2023-06-14T05:35:35;96680;;;14.2;43
68489;BME280;55481;48.764;8.936;2023-06-14T05:38:07;96680;;;14.4;43
68489;BME280;55481;48.764;8.936;2023-06-14T05:40:30;96680;;;14.7;42.5
68489;BME280;55481;48.764;8.936;2023-06-14T05:43:01;96680;;;14.9;42.5
68489;BME280;55481;48.764;8.936;2023-06-14T05:45:32;96680;;;15;42.5
68489;BME280;55481;48.764;8.936;2023-06-14T05:48:03;96680;;;15.1;42.5
68489;BME280;55481;48.764;8.936;2023-06-14T05:50:34;96680;;;15.1;42.5
68489;BME280;55481;48.764;8.936;2023-06-14T05:52:58;96680;;;15.1;42.5
68489;BME280;55481;48.764;8.936;2023-06-14T05:55:28;96680;;;15.4;42.5
68489;BME280;55481;48.764;8.936;2023-06-14T06:03:00;96680;;;15.6;42
68489;BME280;55481;48.764;8.936;2023-06-14T06:05:32;96680;;;15.6;42
68489;BME280;55481;48.764;8.936;2023-06-14T06:08:02;96680;;;15.8;42
68489;BME280;55481;48.764;8.936;2023-06-14T06:10:33;96680;;;15.8;42
68489;BME280;55481;48.764;8.936;2023-06-14T06:15:40;96680;;;16;42
68489;BME280;55481;48.764;8.936;2023-06-14T06:18:11;96680;;;16.2;42
68489;BME280;55481;48.764;8.936;2023-06-14T06:20:42;96680;;;16.4;41.5
68489;BME280;55481;48.764;8.936;2023-06-14T06:23:13;96690;;;16.6;41.5
68489;BME280;55481;48.764;8.936;2023-06-14T06:25:50;96690;;;16.6;41.5
68489;BME280;55481;48.764;8.936;2023-06-14T06:28:15;96690;;;16.7;41.5
68489;BME280;55481;48.764;8.936;2023-06-14T06:33:17;96690;;;17;41
68489;BME280;55481;48.764;8.936;2023-06-14T06:35:48;96690;;;17.2;41
68489;BME280;55481;48.764;8.936;2023-06-14T06:38:19;96690;;;17.3;41
68489;BME280;55481;48.764;8.936;2023-06-14T06:40:51;96690;;;17.4;41
68489;BME280;55481;48.764;8.936;2023-06-14T06:45:59;96690;;;17.6;41
68489;BME280;55481;48.764;8.936;2023-06-14T06:48:29;96690;;;17.8;40.5
68489;BME280;55481;48.764;8.936;2023-06-14T06:50:59;96690;;;17.8;40.5
68489;BME280;55481;48.764;8.936;2023-06-14T06:53:35;96700;;;17.8;40.5
68489;BME280;55481;48.764;8.936;2023-06-14T06:55:59;96700;;;17.9;40.5
68489;BME280;55481;48.764;8.936;2023-06-14T07:00:55;96700;;;18.4;40
68489;BME280;55481;48.764;8.936;2023-06-14T07:03:26;96710;;;18.5;40
68489;BME280;55481;48.764;8.936;2023-06-14T07:08:47;96710;;;18.5;40.5
68489;BME280;55481;48.764;8.936;2023-06-14T07:11:05;96710;;;18.5;40.5
68489;BME280;55481;48.764;8.936;2023-06-14T07:13:48;96710;;;18.5;40.5
68489;BME280;55481;48.764;8.936;2023-06-14T07:16:06;96710;;;18.7;40.5
68489;BME280;55481;48.764;8.936;2023-06-14T07:18:38;96710;;;18.9;40
68489;BME280;55481;48.764;8.936;2023-06-14T07:23:29;96720;;;19.3;39.5
68489;BME280;55481;48.764;8.936;2023-06-14T07:26:00;96730;;;19.3;39.5
68489;BME280;55481;48.764;8.936;2023-06-14T07:28:30;96730;;;19.3;40
68489;BME280;55481;48.764;8.936;2023-06-14T07:30:55;96730;;;19.5;39.5
68489;BME280;55481;48.764;8.936;2023-06-14T07:33:26;96730;;;19.6;39.5
68489;BME280;55481;48.764;8.936;2023-06-14T07:35:57;96730;;;19.7;39.5
68489;BME280;55481;48.764;8.936;2023-06-14T07:38:28;96730;;;19.8;39.5
68489;BME280;55481;48.764;8.936;2023-06-14T07:40:59;96730;;;19.8;39.5
68489;BME280;55481;48.764;8.936;2023-06-14T07:43:29;96730;;;20;39.5
68489;BME280;55481;48.764;8.936;2023-06-14T07:46:00;96730;;;20.2;39
68489;BME280;55481;48.764;8.936;2023-06-14T07:48:31;96730;;;20.2;39
68489;BME280;55481;48.764;8.936;2023-06-14T07:56:03;96740;;;20.5;39
68489;BME280;55481;48.764;8.936;2023-06-14T07:58:34;96730;;;20.5;39
68489;BME280;55481;48.764;8.936;2023-06-14T08:01:05;96730;;;20.6;39
68489;BME280;55481;48.764;8.936;2023-06-14T08:03:35;96730;;;20.8;39
68489;BME280;55481;48.764;8.936;2023-06-14T08:06:06;96730;;;20.9;38.5
68489;BME280;55481;48.764;8.936;2023-06-14T08:08:45;96740;;;21.1;38.5
68489;BME280;55481;48.764;8.936;2023-06-14T08:11:15;96740;;;21.1;38.5
68489;BME280;55481;48.764;8.936;2023-06-14T08:16:20;96740;;;21.2;38.5
68489;BME280;55481;48.764;8.936;2023-06-14T08:26:13;96730;;;21.7;38
68489;BME280;55481;48.764;8.936;2023-06-14T08:28:43;96740;;;22.1;37.5
68489;BME280;55481;48.764;8.936;2023-06-14T08:31:14;96740;;;21.9;38
68489;BME280;55481;48.764;8.936;2023-06-14T08:33:46;96740;;;21.8;38.5
68489;BME280;55481;48.764;8.936;2023-06-14T08:38:53;96750;;;21.7;38.5
68489;BME280;55481;48.764;8.936;2023-06-14T08:41:24;96740;;;22.2;38
68489;BME280;55481;48.764;8.936;2023-06-14T08:43:54;96750;;;22.2;38
68489;BME280;55481;48.764;8.936;2023-06-14T08:46:25;96750;;;22;38.5
68489;BME280;55481;48.764;8.936;2023-06-14T08:48:57;96750;;;22;38.5
68489;BME280;55481;48.764;8.936;2023-06-14T08:51:27;96750;;;22;38.5
68489;BME280;55481;48.764;8.936;2023-06-14T08:54:06;96750;;;22.1;38
68489;BME280;55481;48.764;8.936;2023-06-14T08:59:01;96750;;;22.6;37.5
68489;BME280;55481;48.764;8.936;2023-06-14T09:01:38;96740;;;22.4;38
68489;BME280;55481;48.764;8.936;2023-06-14T09:04:03;96740;;;22.6;37.5
68489;BME280;55481;48.764;8.936;2023-06-14T09:06:34;96740;;;22.8;37.5
68489;BME280;55481;48.764;8.936;2023-06-14T09:09:04;96740;;;22.8;37.5
68489;BME280;55481;48.764;8.936;2023-06-14T09:14:00;96750;;;22.7;38
68489;BME280;55481;48.764;8.936;2023-06-14T09:16:32;96750;;;22.9;37.5
68489;BME280;55481;48.764;8.936;2023-06-14T09:24:03;96750;;;23.1;37.5
68489;BME280;55481;48.764;8.936;2023-06-14T09:26:33;96760;;;23.4;37
68489;BME280;55481;48.764;8.936;2023-06-14T09:29:09;96760;;;23.6;37
68489;BME280;55481;48.764;8.936;2023-06-14T09:31:35;96760;;;23.8;36.5
68489;BME280;55481;48.764;8.936;2023-06-14T09:34:15;96760;;;23.6;37
68489;BME280;55481;48.764;8.936;2023-06-14T09:36:37;96760;;;23.5;37.5
68489;BME280;55481;48.764;8.936;2023-06-14T09:39:07;96750;;;23.3;37.5
68489;BME280;55481;48.764;8.936;2023-06-14T09:41:39;96760;;;23.3;37.5
68489;BME280;55481;48.764;8.936;2023-06-14T09:44:09;96760;;;23.1;37.5
68489;BME280;55481;48.764;8.936;2023-06-14T09:51:53;96760;;;23.8;37
68489;BME280;55481;48.764;8.936;2023-06-14T09:56:48;96760;;;24.1;36.5
68489;BME280;55481;48.764;8.936;2023-06-14T09:59:20;96750;;;24.4;36
68489;BME280;55481;48.764;8.936;2023-06-14T10:01:50;96750;;;24.5;36
68489;BME280;55481;48.764;8.936;2023-06-14T10:04:23;96750;;;23.8;37
68489;BME280;55481;48.764;8.936;2023-06-14T10:09:30;96760;;;23.8;37
68489;BME280;55481;48.764;8.936;2023-06-14T10:14:38;96750;;;24.1;36.5
68489;BME280;55481;48.764;8.936;2023-06-14T10:17:06;96750;;;24.3;36.5
68489;BME280;55481;48.764;8.936;2023-06-14T10:21:57;96740;;;24.8;36
68489;BME280;55481;48.764;8.936;2023-06-14T10:24:35;96750;;;24.1;37
68489;BME280;55481;48.764;8.936;2023-06-14T10:37:00;96740;;;25.6;35
68489;BME280;55481;48.764;8.936;2023-06-14T10:39:25;96740;;;25.3;35.5
68489;BME280;55481;48.764;8.936;2023-06-14T10:41:56;96740;;;25.7;35
68489;BME280;55481;48.764;8.936;2023-06-14T10:44:30;96740;;;26.3;34
68489;BME280;55481;48.764;8.936;2023-06-14T10:47:42;96740;;;26.5;34
68489;BME280;55481;48.764;8.936;2023-06-14T10:49:49;96750;;;25.3;36
68489;BME280;55481;48.764;8.936;2023-06-14T10:52:05;96750;;;24.8;36.5
68489;BME280;55481;48.764;8.936;2023-06-14T10:54:36;96740;;;25.2;36
68489;BME280;55481;48.764;8.936;2023-06-14T10:57:07;96750;;;25.4;35.5
68489;BME280;55481;48.764;8.936;2023-06-14T10:59:37;96750;;;25.2;35.5
68489;BME280;55481;48.764;8.936;2023-06-14T11:02:24;96750;;;24.4;36.5
68489;BME280;55481;48.764;8.936;2023-06-14T11:07:10;96740;;;25.3;35.5
68489;BME280;55481;48.764;8.936;2023-06-14T11:09:39;96740;;;25.7;35
68489;BME280;55481;48.764;8.936;2023-06-14T11:12:18;96740;;;25.6;35
68489;BME280;55481;48.764;8.936;2023-06-14T11:14:48;96740;;;25.7;35
68489;BME280;55481;48.764;8.936;2023-06-14T11:17:13;96740;;;25.8;35
68489;BME280;55481;48.764;8.936;2023-06-14T11:22:22;96740;;;25.2;35.5
68489;BME280;55481;48.764;8.936;2023-06-14T11:27:17;96750;;;24;37
68489;BME280;55481;48.764;8.936;2023-06-14T11:29:48;96760;;;23.5;37.5
68489;BME280;55481;48.764;8.936;2023-06-14T11:34:56;96740;;;23.5;37.5
68489;BME280;55481;48.764;8.936;2023-06-14T11:37:32;96750;;;23.6;37
68489;BME280;55481;48.764;8.936;2023-06-14T11:39:57;96740;;;24.6;36
68489;BME280;55481;48.764;8.936;2023-06-14T11:42:27;96740;;;25.9;34
68489;BME280;55481;48.764;8.936;2023-06-14T11:44:57;96730;;;26.9;33
68489;BME280;55481;48.764;8.936;2023-06-14T11:49:58;96730;;;28.4;31
68489;BME280;55481;48.764;8.936;2023-06-14T11:54:53;96720;;;29.9;29.5
68489;BME280;55481;48.764;8.936;2023-06-14T11:57:23;96720;;;30.1;29.5
68489;BME280;55481;48.764;8.936;2023-06-14T11:59:55;96720;;;30.3;29.5
68489;BME280;55481;48.764;8.936;2023-06-14T12:02:25;96730;;;29.8;30
68489;BME280;55481;48.764;8.936;2023-06-14T12:05:03;96730;;;29;31.5
68489;BME280;55481;48.764;8.936;2023-06-14T12:07:33;96730;;;28.7;32
68489;BME280;55481;48.764;8.936;2023-06-14T12:10:06;96740;;;28.2;32.5
68489;BME280;55481;48.764;8.936;2023-06-14T12:12:29;96730;;;28;32.5
68489;BME280;55481;48.764;8.936;2023-06-14T12:15:02;96730;;;28.9;31.5
68489;BME280;55481;48.764;8.936;2023-06-14T12:17:38;96730;;;29.9;30.5
68489;BME280;55481;48.764;8.936;2023-06-14T12:20:11;96730;;;28.2;32.5
68489;BME280;55481;48.764;8.936;2023-06-14T12:25:05;96740;;;24.4;37.5
68489;BME280;55481;48.764;8.936;2023-06-14T12:27:35;96740;;;24.2;37.5
68489;BME280;55481;48.764;8.936;2023-06-14T12:30:13;96740;;;23.8;37.5
68489;BME280;55481;48.764;8.936;2023-06-14T12:32:38;96740;;;24.7;36.5
68489;BME280;55481;48.764;8.936;2023-06-14T12:35:08;96720;;;27.6;32
68489;BME280;55481;48.764;8.936;2023-06-14T12:37:39;96720;;;26.8;33
68489;BME280;55481;48.764;8.936;2023-06-14T12:40:10;96730;;;27.8;32
68489;BME280;55481;48.764;8.936;2023-06-14T12:42:40;96710;;;29.4;30
68489;BME280;55481;48.764;8.936;2023-06-14T12:47:49;96730;;;28.3;32
68489;BME280;55481;48.764;8.936;2023-06-14T12:52:57;96720;;;30.1;30
68489;BME280;55481;48.764;8.936;2023-06-14T12:55:34;96730;;;30.4;29.5
68489;BME280;55481;48.764;8.936;2023-06-14T12:57:51;96720;;;29.7;30.5
68489;BME280;55481;48.764;8.936;2023-06-14T13:00:21;96720;;;29.4;31
68489;BME280;55481;48.764;8.936;2023-06-14T13:02:47;96720;;;30.3;30
68489;BME280;55481;48.764;8.936;2023-06-14T13:05:17;96720;;;31.3;29
68489;BME280;55481;48.764;8.936;2023-06-14T13:07:48;96720;;;31.4;29
68489;BME280;55481;48.764;8.936;2023-06-14T13:10:11;96730;;;31.7;28.5
68489;BME280;55481;48.764;8.936;2023-06-14T13:17:44;96730;;;31.1;29
68489;BME280;55481;48.764;8.936;2023-06-14T13:20:15;96730;;;30.2;30.5
68489;BME280;55481;48.764;8.936;2023-06-14T13:22:46;96730;;;30.4;30
68489;BME280;55481;48.764;8.936;2023-06-14T13:25:16;96730;;;31;29.5
68489;BME280;55481;48.764;8.936;2023-06-14T13:27:48;96730;;;30;30.5
68489;BME280;55481;48.764;8.936;2023-06-14T13:30:18;96730;;;29.6;31
68489;BME280;55481;48.764;8.936;2023-06-14T13:32:49;96720;;;31.1;29
68489;BME280;55481;48.764;8.936;2023-06-14T13:35:19;96730;;;31;29
68489;BME280;55481;48.764;8.936;2023-06-14T13:47:55;96740;;;25.7;35.5
68489;BME280;55481;48.764;8.936;2023-06-14T13:50:24;96730;;;26.7;34
68489;BME280;55481;48.764;8.936;2023-06-14T13:53:01;96720;;;29.5;30
68489;BME280;55481;48.764;8.936;2023-06-14T13:57:19;96720;;;30.6;28.5
68489;BME280;55481;48.764;8.936;2023-06-14T14:01:44;96710;;;30.9;28.5
68489;BME280;55481;48.764;8.936;2023-06-14T14:04:15;96710;;;31.2;28
68489;BME280;55481;48.764;8.936;2023-06-14T14:06:46;96710;;;31.7;27.5
68489;BME280;55481;48.764;8.936;2023-06-14T14:09:17;96710;;;30.7;28.5
68489;BME280;55481;48.764;8.936;2023-06-14T14:11:48;96720;;;30.3;28.5
68489;BME280;55481;48.764;8.936;2023-06-14T14:14:18;96710;;;30.6;28
68489;BME280;55481;48.764;8.936;2023-06-14T14:16:56;96710;;;29.9;29
68489;BME280;55481;48.764;8.936;2023-06-14T14:19:27;96710;;;30.1;29
68489;BME280;55481;48.764;8.936;2023-06-14T14:22:04;96710;;;29.7;29.5
68489;BME280;55481;48.764;8.936;2023-06-14T14:24:35;96710;;;31.1;27.5
68489;BME280;55481;48.764;8.936;2023-06-14T14:26:59;96710;;;31.8;27
68489;BME280;55481;48.764;8.936;2023-06-14T14:29:30;96710;;;32.4;26.5
68489;BME280;55481;48.764;8.936;2023-06-14T14:32:02;96720;;;31.9;26.5
68489;BME280;55481;48.764;8.936;2023-06-14T14:34:32;96730;;;29.6;29
68489;BME280;55481;48.764;8.936;2023-06-14T14:39:34;96740;;;26.2;33
68489;BME280;55481;48.764;8.936;2023-06-14T14:44:42;96730;;;28.8;29.5
68489;BME280;55481;48.764;8.936;2023-06-14T14:47:06;96720;;;29.1;29
68489;BME280;55481;48.764;8.936;2023-06-14T14:52:14;96720;;;31.6;26
68489;BME280;55481;48.764;8.936;2023-06-14T14:54:44;96720;;;30.9;27
68489;BME280;55481;48.764;8.936;2023-06-14T14:57:09;96730;;;30.5;27.5
68489;BME280;55481;48.764;8.936;2023-06-14T14:59:40;96720;;;29.6;28.5
68489;BME280;55481;48.764;8.936;2023-06-14T15:02:11;96720;;;30.4;27.5
68489;BME280;55481;48.764;8.936;2023-06-14T15:04:42;96730;;;28;30
68489;BME280;55481;48.764;8.936;2023-06-14T15:12:08;96740;;;26.5;31
68489;BME280;55481;48.764;8.936;2023-06-14T15:14:38;96730;;;28.9;28.5
68489;BME280;55481;48.764;8.936;2023-06-14T15:17:08;96720;;;30.6;26.5
68489;BME280;55481;48.764;8.936;2023-06-14T15:19:39;96720;;;30.3;26.5
68489;BME280;55481;48.764;8.936;2023-06-14T15:22:10;96740;;;27.9;29.5
68489;BME280;55481;48.764;8.936;2023-06-14T15:29:42;96740;;;27;30
68489;BME280;55481;48.764;8.936;2023-06-14T15:35:10;96740;;;26.2;31
68489;BME280;55481;48.764;8.936;2023-06-14T15:37:27;96730;;;25.9;31
68489;BME280;55481;48.764;8.936;2023-06-14T15:39:57;96740;;;25.5;31.5
68489;BME280;55481;48.764;8.936;2023-06-14T15:44:51;96730;;;24.8;32
68489;BME280;55481;48.764;8.936;2023-06-14T15:47:22;96730;;;25;31.5
68489;BME280;55481;48.764;8.936;2023-06-14T15:49:53;96730;;;25.3;31
68489;BME280;55481;48.764;8.936;2023-06-14T15:52:23;96730;;;25.2;31
68489;BME280;55481;48.764;8.936;2023-06-14T15:55:01;96730;;;24.9;31.5
68489;BME280;55481;48.764;8.936;2023-06-14T15:59:56;96730;;;24.7;31.5
68489;BME280;55481;48.764;8.936;2023-06-14T16:05:05;96740;;;24.5;31.5
68489;BME280;55481;48.764;8.936;2023-06-14T16:07:35;96740;;;24.4;31.5
68489;BME280;55481;48.764;8.936;2023-06-14T16:12:29;96730;;;24.1;31.5
68489;BME280;55481;48.764;8.936;2023-06-14T16:15:00;96730;;;24.2;31.5
68489;BME280;55481;48.764;8.936;2023-06-14T16:17:31;96730;;;24.3;31.5
68489;BME280;55481;48.764;8.936;2023-06-14T16:24:57;96730;;;24.3;31.5
68489;BME280;55481;48.764;8.936;2023-06-14T16:27:28;96740;;;24.1;31.5
68489;BME280;55481;48.764;8.936;2023-06-14T16:29:59;96740;;;24;31.5
68489;BME280;55481;48.764;8.936;2023-06-14T16:32:29;96730;;;24.1;31.5
68489;BME280;55481;48.764;8.936;2023-06-14T16:35:05;96730;;;24.2;31.5
68489;BME280;55481;48.764;8.936;2023-06-14T16:37:30;96730;;;24.2;31.5
68489;BME280;55481;48.764;8.936;2023-06-14T16:40:08;96740;;;24.1;31.5
68489;BME280;55481;48.764;8.936;2023-06-14T16:42:39;96740;;;23.8;32
68489;BME280;55481;48.764;8.936;2023-06-14T16:45:12;96740;;;23.8;32
68489;BME280;55481;48.764;8.936;2023-06-14T16:47:43;96750;;;23.8;32
68489;BME280;55481;48.764;8.936;2023-06-14T16:50:19;96750;;;23.6;32
68489;BME280;55481;48.764;8.936;2023-06-14T16:52:56;96750;;;23.7;32
68489;BME280;55481;48.764;8.936;2023-06-14T16:55:32;96760;;;23.8;31.5
68489;BME280;55481;48.764;8.936;2023-06-14T17:00:13;96770;;;23.7;32
68489;BME280;55481;48.764;8.936;2023-06-14T17:02:46;96760;;;23.6;32
68489;BME280;55481;48.764;8.936;2023-06-14T17:10:10;96760;;;23.5;32
68489;BME280;55481;48.764;8.936;2023-06-14T17:12:42;96760;;;23.5;32
68489;BME280;55481;48.764;8.936;2023-06-14T17:15:12;96760;;;23.5;32
68489;BME280;55481;48.764;8.936;2023-06-14T17:17:42;96760;;;23.4;32
68489;BME280;55481;48.764;8.936;2023-06-14T17:20:15;96770;;;23.5;32
68489;BME280;55481;48.764;8.936;2023-06-14T17:22:45;96770;;;23.5;32
68489;BME280;55481;48.764;8.936;2023-06-14T17:25:15;96770;;;23.5;32
68489;BME280;55481;48.764;8.936;2023-06-14T17:27:46;96780;;;23.4;32
68489;BME280;55481;48.764;8.936;2023-06-14T17:37:49;96790;;;23;32.5
68489;BME280;55481;48.764;8.936;2023-06-14T17:40:20;96790;;;22.9;32.5
68489;BME280;55481;48.764;8.936;2023-06-14T17:45:27;96800;;;22.9;32.5
68489;BME280;55481;48.764;8.936;2023-06-14T17:47:58;96800;;;22.9;32.5
68489;BME280;55481;48.764;8.936;2023-06-14T17:50:39;96800;;;22.9;32.5
68489;BME280;55481;48.764;8.936;2023-06-14T17:55:24;96800;;;22.8;32.5
68489;BME280;55481;48.764;8.936;2023-06-14T18:05:27;96810;;;22.6;33
68489;BME280;55481;48.764;8.936;2023-06-14T18:10:28;96810;;;22.5;33
68489;BME280;55481;48.764;8.936;2023-06-14T18:12:59;96820;;;22.4;33
68489;BME280;55481;48.764;8.936;2023-06-14T18:18:13;96810;;;22.3;33
68489;BME280;55481;48.764;8.936;2023-06-14T18:20:43;96820;;;22.2;33
68489;BME280;55481;48.764;8.936;2023-06-14T18:23:13;96820;;;22.2;33.5
68489;BME280;55481;48.764;8.936;2023-06-14T18:25:43;96820;;;22.1;33.5
68489;BME280;55481;48.764;8.936;2023-06-14T18:28:07;96830;;;22.1;33.5
68489;BME280;55481;48.764;8.936;2023-06-14T18:30:45;96820;;;22;33.5
68489;BME280;55481;48.764;8.936;2023-06-14T18:35:40;96830;;;21.9;33.5
68489;BME280;55481;48.764;8.936;2023-06-14T18:40:48;96830;;;21.7;33.5
68489;BME280;55481;48.764;8.936;2023-06-14T18:43:19;96840;;;21.6;34
68489;BME280;55481;48.764;8.936;2023-06-14T18:45:43;96830;;;21.6;34
68489;BME280;55481;48.764;8.936;2023-06-14T18:48:13;96830;;;21.5;34